Mckinley Sea — WDE5024 — position and weather

sailwx.info

Track history (hours):
 
Tides and Currents Weather Stations Pressure Air Temp Water Temp Dewpoint Dewpoint Depression Visibility Wind Speed Wind Dir Waves Ship Positions

Mckinley Sea

Owner: Kirby Offshore Marine, LLC, Staten Island, NY. More information available from US FCC via Universal Licensing System and Coast Guard Vessel Documentation Center.

Last reported at 2015-Feb-26 12:32 UTC. Time now 2015-Feb-26 23:27 UTC.
Position N 41°34' W 070°45'.

Length 46 m; draft 7 m.

Type: Towing. MMSI: 367360980.

Date/timePositionNaut miles runAvg speedWind from/ knotsBaromVisibWave heightAir tempDewpointWater temp
2015-Feb-26 12:32N 41°34' W 070°45'6 5.5
2015-Feb-26 11:28N 41°30' W 070°51'6 5.4
2015-Feb-26 10:21N 41°28' W 070°58'11 5.8
2015-Feb-26 08:29N 41°20' W 071°08'6 6.3
2015-Feb-26 07:33N 41°15' W 071°12'6 6.4
2015-Feb-26 06:33N 41°10' W 071°18'6 6.2
2015-Feb-26 05:33N 41°08' W 071°25'6 6.2
2015-Feb-26 04:33N 41°06' W 071°33'6 6.1
2015-Feb-26 03:33N 41°04' W 071°41'6 5.9
2015-Feb-26 02:33N 41°01' W 071°48'6 5.6
2015-Feb-26 01:33N 40°59' W 071°54'6 5.9
2015-Feb-26 00:33N 40°57' W 072°02'6 5.9
2015-Feb-25 23:33N 40°54' W 072°09'6 6.0
2015-Feb-25 22:33N 40°52' W 072°16'6 6.2
2015-Feb-25 21:33N 40°49' W 072°23'6 6.3
2015-Feb-25 20:33N 40°47' W 072°31'6 6.1
2015-Feb-25 19:33N 40°44' W 072°38'8 6.3
2015-Feb-25 18:18N 40°42' W 072°48'12 6.1
2015-Feb-25 16:18N 40°37' W 073°03'27 6.9
2015-Feb-25 12:22N 40°31' W 073°38'8 7.7
2015-Feb-25 11:22N 40°30' W 073°48'14 7.3
2015-Feb-25 09:29N 40°37' W 074°03'6 6.3
2015-Feb-25 08:28N 40°39' W 074°11'1 0.9
2015-Feb-25 07:10N 40°38' W 074°12'0 0.0
2015-Feb-25 03:26N 40°38' W 074°12'0 0.0
2015-Feb-24 17:12N 40°38' W 074°12'0 0.0
2015-Feb-24 16:27N 40°38' W 074°12'0 0.0
2015-Feb-23 14:10N 40°38' W 074°12'0 0.0
2015-Feb-23 00:12N 40°38' W 074°12'3 4.5
2015-Feb-22 23:33N 40°39' W 074°09'5 4.9
2015-Feb-22 22:33N 40°40' W 074°02'6 1.9
2015-Feb-22 19:32N 40°38' W 074°10'2 1.6
2015-Feb-22 18:32N 40°39' W 074°08'1 0.6
2015-Feb-22 17:11N 40°39' W 074°07'0 0.0
2015-Feb-22 16:29N 40°39' W 074°07'0 0.0
2015-Feb-22 15:26N 40°39' W 074°07'0 0.0
2015-Feb-22 14:08N 40°39' W 074°07'0 0.0
2015-Feb-22 13:22N 40°39' W 074°07'0 0.0
2015-Feb-22 12:19N 40°39' W 074°07'0 0.0
2015-Feb-22 11:06N 40°39' W 074°07'3 6.0
2015-Feb-22 10:33N 40°40' W 074°02'2 2.3
2015-Feb-22 09:33N 40°42' W 074°00'29 8.8
2015-Feb-22 06:18N 40°58' W 073°30'7 9.2
2015-Feb-22 05:33N 41°01' W 073°21'3310.2
2015-Feb-22 02:20N 41°07' W 072°39'810.5
2015-Feb-22 01:33N 41°09' W 072°28'10 9.6
2015-Feb-22 00:33N 41°12' W 072°16'8 8.0
2015-Feb-21 23:33N 41°14' W 072°06'7 6.8
2015-Feb-21 22:33N 41°15' W 071°57'7 7.1
2015-Feb-21 21:33N 41°16' W 071°48'8 7.9
2015-Feb-21 20:33N 41°18' W 071°37'8 8.1
2015-Feb-21 19:33N 41°18' W 071°26'8 8.2
2015-Feb-21 18:33N 41°20' W 071°16'11 8.5
2015-Feb-21 17:15N 41°25' W 071°03'68 1.9
2015-Feb-20 05:33N 42°31' W 070°41'11 7.6
2015-Feb-20 04:06N 42°39' W 070°31'5 9.3
2015-Feb-20 03:33N 42°44' W 070°33'9 9.0
2015-Feb-20 02:33N 42°53' W 070°37'  
2015-Feb-16 16:32N 41°23' W 071°08'5 4.7
2015-Feb-16 15:33N 41°21' W 071°13'  
Track history (hours):
 
Tides and Currents Weather Stations Pressure Air Temp Water Temp Dewpoint Dewpoint Depression Visibility Wind Speed Wind Dir Waves Ship Positions

Mckinley Sea

Owner: Kirby Offshore Marine, LLC, Staten Island, NY. More information available from US FCC via Universal Licensing System and Coast Guard Vessel Documentation Center.

Last reported at 2015-Feb-26 12:32 UTC. Time now 2015-Feb-26 23:27 UTC.
Position N 41°34' W 070°45'.

Length 46 m; draft 7 m.

Type: Towing. MMSI: 367360980.

Date/timePositionNaut miles runAvg speedWind from/ knotsBaromVisibWave heightAir tempDewpointWater temp
2015-Feb-26 12:32N 41°34' W 070°45'6 5.5
2015-Feb-26 11:28N 41°30' W 070°51'6 5.4
2015-Feb-26 10:21N 41°28' W 070°58'11 5.8
2015-Feb-26 08:29N 41°20' W 071°08'6 6.3
2015-Feb-26 07:33N 41°15' W 071°12'6 6.4
2015-Feb-26 06:33N 41°10' W 071°18'6 6.2
2015-Feb-26 05:33N 41°08' W 071°25'6 6.2
2015-Feb-26 04:33N 41°06' W 071°33'6 6.1
2015-Feb-26 03:33N 41°04' W 071°41'6 5.9
2015-Feb-26 02:33N 41°01' W 071°48'6 5.6
2015-Feb-26 01:33N 40°59' W 071°54'6 5.9
2015-Feb-26 00:33N 40°57' W 072°02'6 5.9
2015-Feb-25 23:33N 40°54' W 072°09'6 6.0
2015-Feb-25 22:33N 40°52' W 072°16'6 6.2
2015-Feb-25 21:33N 40°49' W 072°23'6 6.3
2015-Feb-25 20:33N 40°47' W 072°31'6 6.1
2015-Feb-25 19:33N 40°44' W 072°38'8 6.3
2015-Feb-25 18:18N 40°42' W 072°48'12 6.1
2015-Feb-25 16:18N 40°37' W 073°03'27 6.9
2015-Feb-25 12:22N 40°31' W 073°38'8 7.7
2015-Feb-25 11:22N 40°30' W 073°48'14 7.3
2015-Feb-25 09:29N 40°37' W 074°03'6 6.3
2015-Feb-25 08:28N 40°39' W 074°11'1 0.9
2015-Feb-25 07:10N 40°38' W 074°12'0 0.0
2015-Feb-25 03:26N 40°38' W 074°12'0 0.0
2015-Feb-24 17:12N 40°38' W 074°12'0 0.0
2015-Feb-24 16:27N 40°38' W 074°12'0 0.0
2015-Feb-23 14:10N 40°38' W 074°12'0 0.0
2015-Feb-23 00:12N 40°38' W 074°12'3 4.5
2015-Feb-22 23:33N 40°39' W 074°09'5 4.9
2015-Feb-22 22:33N 40°40' W 074°02'6 1.9
2015-Feb-22 19:32N 40°38' W 074°10'2 1.6
2015-Feb-22 18:32N 40°39' W 074°08'1 0.6
2015-Feb-22 17:11N 40°39' W 074°07'0 0.0
2015-Feb-22 16:29N 40°39' W 074°07'0 0.0
2015-Feb-22 15:26N 40°39' W 074°07'0 0.0
2015-Feb-22 14:08N 40°39' W 074°07'0 0.0
2015-Feb-22 13:22N 40°39' W 074°07'0 0.0
2015-Feb-22 12:19N 40°39' W 074°07'0 0.0
2015-Feb-22 11:06N 40°39' W 074°07'3 6.0
2015-Feb-22 10:33N 40°40' W 074°02'2 2.3
2015-Feb-22 09:33N 40°42' W 074°00'29 8.8
2015-Feb-22 06:18N 40°58' W 073°30'7 9.2
2015-Feb-22 05:33N 41°01' W 073°21'3310.2
2015-Feb-22 02:20N 41°07' W 072°39'810.5
2015-Feb-22 01:33N 41°09' W 072°28'10 9.6
2015-Feb-22 00:33N 41°12' W 072°16'8 8.0
2015-Feb-21 23:33N 41°14' W 072°06'7 6.8
2015-Feb-21 22:33N 41°15' W 071°57'7 7.1
2015-Feb-21 21:33N 41°16' W 071°48'8 7.9
2015-Feb-21 20:33N 41°18' W 071°37'8 8.1
2015-Feb-21 19:33N 41°18' W 071°26'8 8.2
2015-Feb-21 18:33N 41°20' W 071°16'11 8.5
2015-Feb-21 17:15N 41°25' W 071°03'68 1.9
2015-Feb-20 05:33N 42°31' W 070°41'11 7.6
2015-Feb-20 04:06N 42°39' W 070°31'5 9.3
2015-Feb-20 03:33N 42°44' W 070°33'9 9.0
2015-Feb-20 02:33N 42°53' W 070°37'  
2015-Feb-16 16:32N 41°23' W 071°08'5 4.7
2015-Feb-16 15:33N 41°21' W 071°13'  

Dump ship's entire track history